Time;durP1;ratioP1;P1;durP2;ratioP2;P2;SDS_P1;SDS_P2;PMS_P1;PMS_P2;Temp;Humidity;BMP_temperature;BMP_pressure;BME280_temperature;BME280_humidity;BME280_pressure;Samples;Min_cycle;Max_cycle;Signal;HPM_P1;HPM_P2
2023/04/16 00:01:21;;;;;;;210.07;35.13;;;8.70;99.90;;;;;;5062828;28;20080;-69
2023/04/16 00:03:47;;;;;;;138.02;29.95;;;8.60;99.90;;;;;;5047282;28;20073;-71
2023/04/16 00:06:12;;;;;;;123.35;24.50;;;8.50;99.90;;;;;;5048330;28;20053;-71
2023/04/16 00:08:39;;;;;;;174.50;32.55;;;8.60;99.90;;;;;;5047378;28;20033;-72
2023/04/16 00:11:05;;;;;;;213.15;35.95;;;8.60;99.90;;;;;;5065732;28;20047;-73
2023/04/16 00:13:31;;;;;;;169.10;30.55;;;8.70;99.90;;;;;;5060015;28;20045;-66
2023/04/16 00:15:59;;;;;;;142.25;27.98;;;8.70;99.90;;;;;;5045516;28;20125;-68
2023/04/16 00:18:25;;;;;;;173.63;29.60;;;8.60;99.90;;;;;;5047499;28;20036;-71
2023/04/16 00:20:50;;;;;;;195.10;36.25;;;8.50;99.90;;;;;;5047781;28;20480;-69
2023/04/16 00:23:16;;;;;;;198.82;33.35;;;8.60;99.90;;;;;;5046899;28;20033;-68
2023/04/16 00:25:42;;;;;;;222.38;37.83;;;8.70;99.90;;;;;;5049680;28;20055;-66
2023/04/16 00:28:08;;;;;;;230.20;40.28;;;8.70;99.90;;;;;;5048830;28;20502;-64
2023/04/16 00:30:34;;;;;;;170.02;29.65;;;8.60;99.90;;;;;;5061944;28;20175;-71
2023/04/16 00:32:59;;;;;;;217.65;37.35;;;8.70;99.90;;;;;;5048150;28;20056;-68
2023/04/16 00:35:25;;;;;;;165.13;30.40;;;8.50;99.90;;;;;;5047067;28;20033;-66
2023/04/16 00:37:51;;;;;;;214.20;39.05;;;8.70;99.90;;;;;;5052747;28;20039;-65
2023/04/16 00:40:16;;;;;;;184.20;31.38;;;8.60;99.90;;;;;;5051080;28;20514;-64
2023/04/16 00:42:42;;;;;;;179.10;32.35;;;8.60;99.90;;;;;;5056138;28;20041;-69
2023/04/16 00:45:08;;;;;;;193.88;35.83;;;8.50;99.90;;;;;;5052667;28;20037;-65
2023/04/16 00:47:34;;;;;;;185.18;31.55;;;8.60;99.90;;;;;;5051087;28;20044;-67
2023/04/16 00:50:01;;;;;;;156.93;29.30;;;8.70;99.90;;;;;;5051862;28;20048;-66
2023/04/16 00:52:27;;;;;;;230.25;40.28;;;8.50;99.90;;;;;;5035848;28;20507;-67
2023/04/16 00:54:53;;;;;;;225.93;38.75;;;8.70;99.90;;;;;;5048194;28;20442;-71
2023/04/16 00:57:19;;;;;;;218.93;38.83;;;8.60;99.90;;;;;;5048539;28;20037;-72
2023/04/16 00:59:45;;;;;;;190.50;36.42;;;8.50;99.90;;;;;;5048277;28;20039;-68
2023/04/16 01:02:11;;;;;;;184.45;34.25;;;8.60;99.90;;;;;;5051475;28;20045;-71
2023/04/16 01:04:37;;;;;;;195.95;34.30;;;8.50;99.90;;;;;;5050039;28;20033;-70
2023/04/16 01:07:02;;;;;;;146.40;29.98;;;8.50;99.90;;;;;;5047841;28;20067;-69
2023/04/16 01:09:28;;;;;;;118.88;28.30;;;8.60;99.90;;;;;;5046641;28;20040;-70
2023/04/16 01:11:53;;;;;;;188.20;36.22;;;8.70;99.90;;;;;;5049357;28;20072;-69
2023/04/16 01:14:19;;;;;;;169.00;34.67;;;8.50;99.90;;;;;;5052591;28;20044;-68
2023/04/16 01:16:44;;;;;;;140.20;30.38;;;8.60;99.90;;;;;;5053013;28;20045;-65
2023/04/16 01:19:10;;;;;;;167.90;33.10;;;8.70;99.90;;;;;;5049177;28;20045;-67
2023/04/16 01:21:35;;;;;;;161.77;31.13;;;8.70;99.90;;;;;;5068989;28;20475;-64
2023/04/16 01:24:03;;;;;;;202.82;39.38;;;8.60;99.90;;;;;;5050987;28;20045;-70
2023/04/16 01:26:29;;;;;;;101.45;23.05;;;8.70;99.90;;;;;;5046282;28;20041;-70
2023/04/16 01:28:55;;;;;;;100.20;26.58;;;8.60;99.90;;;;;;5047910;28;20064;-68
2023/04/16 01:31:20;;;;;;;118.38;26.08;;;8.60;99.90;;;;;;5048920;28;20044;-65
2023/04/16 01:33:46;;;;;;;110.97;25.25;;;8.70;99.90;;;;;;5051694;28;20049;-72
2023/04/16 01:36:12;;;;;;;134.25;31.75;;;8.70;99.90;;;;;;5050998;28;20064;-65
2023/04/16 01:38:37;;;;;;;167.32;35.35;;;8.60;99.90;;;;;;5046095;28;20047;-66
2023/04/16 01:41:03;;;;;;;125.45;28.33;;;8.70;99.90;;;;;;5051807;28;20120;-68
2023/04/16 01:43:28;;;;;;;144.38;32.65;;;8.50;99.90;;;;;;5048860;28;20048;-64
2023/04/16 01:46:12;;;;;;;143.43;34.05;;;8.60;99.90;;;;;;5053868;28;20476;-67
2023/04/16 01:48:37;;;;;;;174.10;37.65;;;8.60;99.90;;;;;;5048765;28;20115;-66
2023/04/16 01:51:17;;;;;;;116.32;30.60;;;8.50;99.90;;;;;;5051360;28;20116;-65
2023/04/16 01:53:43;;;;;;;112.30;26.08;;;8.70;99.90;;;;;;5031689;28;20044;-64
2023/04/16 01:56:08;;;;;;;128.95;32.60;;;8.70;99.90;;;;;;5068907;28;20052;-66
2023/04/16 01:58:34;;;;;;;119.68;29.63;;;8.70;99.90;;;;;;5055718;28;20384;-65
2023/04/16 02:01:00;;;;;;;93.07;24.30;;;8.50;99.90;;;;;;5067734;28;20075;-66
2023/04/16 02:03:26;;;;;;;100.72;27.00;;;8.70;99.90;;;;;;5048957;28;20117;-72
2023/04/16 02:05:51;;;;;;;113.65;32.90;;;8.70;99.90;;;;;;5050660;28;20033;-64
2023/04/16 02:08:17;;;;;;;78.30;21.50;;;8.60;99.90;;;;;;5050091;28;20039;-68
2023/04/16 02:10:46;;;;;;;114.07;29.80;;;8.70;99.90;;;;;;5047763;28;20045;-65
2023/04/16 02:13:12;;;;;;;95.90;26.92;;;8.70;99.90;;;;;;5052917;28;20045;-64
2023/04/16 02:15:37;;;;;;;81.30;25.10;;;8.60;99.90;;;;;;5049860;28;20053;-66
2023/04/16 02:18:03;;;;;;;110.93;31.67;;;8.50;99.90;;;;;;5050472;28;20499;-63
2023/04/16 02:20:28;;;;;;;82.85;24.17;;;8.70;99.90;;;;;;5049507;28;20041;-65
2023/04/16 02:22:54;;;;;;;72.03;23.95;;;8.70;99.90;;;;;;5050062;28;20044;-69
2023/04/16 02:25:20;;;;;;;88.57;25.17;;;8.50;99.90;;;;;;5048157;28;20040;-64
2023/04/16 02:27:45;;;;;;;102.25;29.38;;;8.70;99.90;;;;;;5047819;28;20037;-66
2023/04/16 02:30:11;;;;;;;72.47;23.08;;;8.70;99.90;;;;;;5047796;28;20082;-66
2023/04/16 02:32:36;;;;;;;79.25;25.55;;;8.70;99.90;;;;;;5064914;28;20134;-65
2023/04/16 02:35:02;;;;;;;96.90;29.42;;;8.50;99.90;;;;;;5047916;28;20051;-65
2023/04/16 02:37:28;;;;;;;83.30;25.83;;;8.70;99.90;;;;;;5047060;28;20489;-68
2023/04/16 02:39:54;;;;;;;85.03;26.83;;;8.50;99.90;;;;;;5052009;28;20047;-64
2023/04/16 02:42:20;;;;;;;90.15;26.67;;;8.60;99.90;;;;;;5050448;28;20044;-66
2023/04/16 02:44:45;;;;;;;92.18;29.80;;;8.60;99.90;;;;;;5044372;28;20037;-64
2023/04/16 02:47:11;;;;;;;87.80;27.38;;;8.60;99.90;;;;;;5046885;28;20045;-68
2023/04/16 02:49:36;;;;;;;121.25;33.05;;;8.40;99.90;;;;;;5048592;28;20029;-66
2023/04/16 02:52:02;;;;;;;104.25;30.10;;;8.40;99.90;;;;;;5046132;28;20059;-68
2023/04/16 02:54:27;;;;;;;90.80;28.98;;;8.40;99.90;;;;;;5062021;28;20075;-63
2023/04/16 02:56:53;;;;;;;76.30;25.98;;;8.50;99.90;;;;;;5063042;28;20476;-64
2023/04/16 02:59:18;;;;;;;84.95;28.63;;;8.40;99.90;;;;;;5062532;28;20427;-63
2023/04/16 03:01:44;;;;;;;85.43;28.00;;;8.60;99.90;;;;;;5046845;28;20040;-69
2023/04/16 03:04:09;;;;;;;75.82;24.50;;;8.40;99.90;;;;;;5047426;28;20037;-64
2023/04/16 03:06:35;;;;;;;89.50;27.13;;;8.60;99.90;;;;;;5048046;28;20476;-67
2023/04/16 03:09:00;;;;;;;79.93;28.48;;;8.40;99.90;;;;;;5043854;28;20036;-64
2023/04/16 03:11:26;;;;;;;68.68;20.08;;;8.50;99.90;;;;;;5047935;28;20051;-65
2023/04/16 03:13:52;;;;;;;50.75;18.00;;;8.50;99.90;;;;;;5048879;28;20323;-64
2023/04/16 03:16:18;;;;;;;44.58;15.57;;;8.40;99.90;;;;;;5046263;28;20036;-64
2023/04/16 03:18:43;;;;;;;88.80;27.48;;;8.50;99.90;;;;;;5047399;28;20120;-64
2023/04/16 03:21:09;;;;;;;67.00;21.25;;;8.40;99.90;;;;;;5048326;28;20750;-66
2023/04/16 03:23:35;;;;;;;75.32;23.42;;;8.40;99.90;;;;;;5046337;28;20033;-64
2023/04/16 03:26:00;;;;;;;69.32;24.13;;;8.40;99.90;;;;;;5045896;28;20045;-64
2023/04/16 03:28:26;;;;;;;77.32;26.08;;;8.50;99.90;;;;;;5046416;28;20396;-63
2023/04/16 03:30:52;;;;;;;85.15;27.98;;;8.50;99.90;;;;;;5042324;28;20038;-64
2023/04/16 03:33:18;;;;;;;97.45;29.15;;;8.50;99.90;;;;;;5045451;28;20048;-65
2023/04/16 03:35:44;;;;;;;78.43;26.92;;;8.30;99.90;;;;;;5044544;28;20060;-67
2023/04/16 03:38:10;;;;;;;73.97;26.95;;;8.30;99.90;;;;;;5045032;28;20040;-69
2023/04/16 03:40:35;;;;;;;74.93;28.10;;;8.50;99.90;;;;;;5044099;28;20033;-69
2023/04/16 03:43:01;;;;;;;70.75;27.42;;;8.30;99.90;;;;;;5044565;28;20384;-69
2023/04/16 03:45:26;;;;;;;76.47;26.25;;;8.30;99.90;;;;;;5060639;28;20041;-66
2023/04/16 03:47:52;;;;;;;75.13;25.23;;;8.40;99.90;;;;;;5045724;28;20105;-67
2023/04/16 03:50:18;;;;;;;78.18;26.55;;;8.30;99.90;;;;;;5046324;28;20047;-68
2023/04/16 03:52:45;;;;;;;72.28;28.65;;;8.30;99.90;;;;;;5047152;28;20044;-67
2023/04/16 03:55:11;;;;;;;80.28;28.20;;;8.30;99.90;;;;;;5045395;28;20056;-67
2023/04/16 03:57:37;;;;;;;73.53;21.85;;;8.40;99.90;;;;;;5046179;28;20488;-67
2023/04/16 04:00:03;;;;;;;51.63;20.02;;;8.30;99.90;;;;;;5050713;28;20032;-67
2023/04/16 04:02:28;;;;;;;62.58;25.17;;;8.50;99.90;;;;;;5043724;28;20045;-63
2023/04/16 04:04:54;;;;;;;77.82;26.98;;;8.40;99.90;;;;;;5048954;28;20029;-66
2023/04/16 04:07:20;;;;;;;70.78;27.75;;;8.40;99.90;;;;;;5046621;28;20045;-69
2023/04/16 04:09:45;;;;;;;73.10;25.30;;;8.50;99.90;;;;;;5040863;28;20108;-66
2023/04/16 04:12:11;;;;;;;69.28;26.65;;;8.40;99.90;;;;;;5039665;28;20575;-69
2023/04/16 04:14:38;;;;;;;71.10;27.95;;;8.40;99.90;;;;;;5042406;28;20131;-66
2023/04/16 04:17:04;;;;;;;80.80;29.70;;;8.40;99.90;;;;;;5041000;28;20112;-65
2023/04/16 04:19:30;;;;;;;79.32;27.52;;;8.30;99.90;;;;;;5042549;28;20044;-64
2023/04/16 04:21:55;;;;;;;71.10;27.33;;;8.30;99.90;;;;;;5041137;28;20033;-66
2023/04/16 04:24:21;;;;;;;64.50;26.15;;;8.50;99.90;;;;;;5028268;28;20049;-64
2023/04/16 04:26:46;;;;;;;75.53;29.27;;;8.50;99.90;;;;;;5043230;28;20033;-65
2023/04/16 04:29:12;;;;;;;57.15;22.77;;;8.50;99.90;;;;;;5040294;28;20040;-65
2023/04/16 04:31:38;;;;;;;87.38;29.77;;;8.30;99.90;;;;;;5059250;28;20041;-69
2023/04/16 04:34:03;;;;;;;82.07;28.38;;;8.30;99.90;;;;;;5045765;28;20068;-66
2023/04/16 04:36:29;;;;;;;78.38;25.85;;;8.30;99.90;;;;;;5043314;28;20665;-63
2023/04/16 04:38:55;;;;;;;47.58;17.88;;;8.40;99.90;;;;;;5046689;28;20097;-65
2023/04/16 04:41:20;;;;;;;56.97;23.45;;;8.50;99.90;;;;;;5047756;28;20052;-65
2023/04/16 04:43:46;;;;;;;62.13;24.25;;;8.30;99.90;;;;;;5046077;28;20045;-65
2023/04/16 04:46:12;;;;;;;72.20;27.42;;;8.30;99.90;;;;;;5044879;28;20587;-67
2023/04/16 04:48:37;;;;;;;75.40;28.50;;;8.40;99.90;;;;;;5042780;28;20080;-69
2023/04/16 04:51:03;;;;;;;75.82;30.77;;;8.30;99.90;;;;;;5039506;28;20120;-69
2023/04/16 04:53:28;;;;;;;72.15;27.83;;;8.20;99.90;;;;;;5043176;28;20040;-68
2023/04/16 04:55:54;;;;;;;77.85;29.75;;;8.30;99.90;;;;;;5043220;28;20076;-69
2023/04/16 04:58:20;;;;;;;90.47;30.92;;;8.40;99.90;;;;;;5040329;28;20058;-69
2023/04/16 05:00:45;;;;;;;71.50;28.60;;;8.20;99.90;;;;;;5057334;28;20056;-69
2023/04/16 05:03:11;;;;;;;84.80;29.77;;;8.20;99.90;;;;;;5057508;28;20672;-66
2023/04/16 05:05:38;;;;;;;80.85;29.48;;;8.30;99.90;;;;;;5040922;28;20094;-69
2023/04/16 05:08:04;;;;;;;81.50;30.50;;;8.20;99.90;;;;;;5040883;28;20037;-69
2023/04/16 05:10:29;;;;;;;83.55;28.27;;;8.40;99.90;;;;;;5041691;28;20087;-67
2023/04/16 05:12:55;;;;;;;76.18;27.83;;;8.30;99.90;;;;;;5039541;28;20109;-67
2023/04/16 05:15:21;;;;;;;75.15;29.20;;;8.30;99.90;;;;;;5039264;28;20045;-67
2023/04/16 05:17:47;;;;;;;80.38;29.08;;;8.20;99.90;;;;;;5036074;28;20037;-68
2023/04/16 05:20:12;;;;;;;103.28;32.90;;;8.20;99.90;;;;;;5056375;28;20491;-68
2023/04/16 05:22:38;;;;;;;77.78;28.20;;;8.40;99.90;;;;;;5047072;28;20044;-68
2023/04/16 05:25:04;;;;;;;75.30;27.88;;;8.30;99.90;;;;;;5042865;28;20072;-68
2023/04/16 05:27:36;;;;;;;83.70;30.08;;;8.20;99.90;;;;;;5029001;28;20431;-65
2023/04/16 05:30:02;;;;;;;81.70;28.60;;;8.40;99.90;;;;;;5042943;28;20128;-67
2023/04/16 05:32:27;;;;;;;63.83;23.10;;;8.20;99.90;;;;;;5041189;28;20069;-69
2023/04/16 05:34:53;;;;;;;82.25;27.60;;;8.40;99.90;;;;;;5046526;28;20128;-68
2023/04/16 05:37:18;;;;;;;89.32;29.70;;;8.40;99.90;;;;;;5044920;28;20184;-65
2023/04/16 05:39:44;;;;;;;97.47;29.60;;;8.30;99.90;;;;;;5059544;28;20041;-67
2023/04/16 05:42:10;;;;;;;79.75;26.95;;;8.40;99.90;;;;;;5044662;28;20036;-68
2023/04/16 05:44:35;;;;;;;73.75;26.85;;;8.40;99.90;;;;;;5047077;28;20127;-64
2023/04/16 05:47:01;;;;;;;70.78;25.60;;;8.40;99.90;;;;;;5058541;28;20036;-64
2023/04/16 05:49:26;;;;;;;78.88;26.80;;;8.20;99.90;;;;;;5045758;28;20392;-65
2023/04/16 05:51:52;;;;;;;80.72;29.60;;;8.30;99.90;;;;;;5043019;28;20049;-69
2023/04/16 05:54:17;;;;;;;74.72;30.13;;;8.30;99.90;;;;;;5042126;28;20040;-69
2023/04/16 05:56:43;;;;;;;79.72;28.63;;;8.30;99.90;;;;;;5044208;28;20044;-67
2023/04/16 05:59:08;;;;;;;80.65;29.25;;;8.30;99.90;;;;;;5045347;28;20068;-66
2023/04/16 06:01:34;;;;;;;84.28;28.30;;;8.50;99.90;;;;;;5041744;28;20052;-65
2023/04/16 06:04:00;;;;;;;70.18;27.05;;;8.50;99.90;;;;;;5044293;28;20523;-64
2023/04/16 06:06:26;;;;;;;68.28;24.92;;;8.60;99.90;;;;;;5043858;28;20033;-65
2023/04/16 06:08:52;;;;;;;79.05;27.08;;;8.50;99.90;;;;;;5043924;28;20044;-64
2023/04/16 06:11:17;;;;;;;78.15;30.60;;;8.60;99.90;;;;;;5043346;28;20040;-69
2023/04/16 06:13:43;;;;;;;84.13;31.85;;;8.70;99.90;;;;;;5058122;28;20040;-69
2023/04/16 06:16:09;;;;;;;75.93;28.80;;;8.60;99.90;;;;;;5058371;28;20064;-69
2023/04/16 06:18:34;;;;;;;78.72;30.95;;;8.60;99.90;;;;;;5043472;28;20171;-69
2023/04/16 06:21:00;;;;;;;74.97;25.92;;;8.80;99.90;;;;;;5056773;28;20037;-64
2023/04/16 06:23:25;;;;;;;49.10;20.80;;;8.70;99.90;;;;;;5060601;28;20052;-67
2023/04/16 06:25:51;;;;;;;72.65;27.02;;;8.80;99.90;;;;;;5044689;28;20037;-66
2023/04/16 06:28:16;;;;;;;63.28;24.52;;;8.90;99.90;;;;;;5044464;28;20029;-65
2023/04/16 06:30:42;;;;;;;62.13;23.23;;;9.00;99.90;;;;;;5042252;28;20052;-67
2023/04/16 06:33:08;;;;;;;71.72;27.63;;;9.00;99.90;;;;;;5044862;28;20053;-65
2023/04/16 06:35:33;;;;;;;79.95;29.48;;;9.10;99.90;;;;;;5058044;28;20041;-64
2023/04/16 06:37:59;;;;;;;70.50;27.80;;;9.10;99.90;;;;;;5047755;28;20526;-67
2023/04/16 06:40:24;;;;;;;69.35;29.80;;;9.10;99.90;;;;;;5044207;28;20392;-69
2023/04/16 06:42:50;;;;;;;64.90;25.65;;;9.20;99.90;;;;;;5042944;28;20064;-65
2023/04/16 06:45:16;;;;;;;61.13;26.13;;;9.20;99.90;;;;;;5042983;28;20037;-64
2023/04/16 06:47:41;;;;;;;61.13;25.48;;;9.20;99.90;;;;;;5049906;28;20044;-64
2023/04/16 06:50:07;;;;;;;56.53;23.77;;;9.30;99.90;;;;;;5061534;28;20036;-68
2023/04/16 06:52:32;;;;;;;58.78;27.90;;;9.20;99.90;;;;;;5045033;28;20045;-69
2023/04/16 06:54:58;;;;;;;51.08;24.35;;;9.30;99.90;;;;;;5051184;28;20040;-67
2023/04/16 06:57:23;;;;;;;45.47;20.60;;;9.40;99.90;;;;;;5055840;28;20040;-69
2023/04/16 06:59:49;;;;;;;56.28;25.80;;;9.50;99.90;;;;;;5046919;28;20037;-68
2023/04/16 07:02:15;;;;;;;61.63;25.73;;;9.40;99.90;;;;;;5062357;28;20041;-68
2023/04/16 07:04:40;;;;;;;51.75;20.95;;;9.50;99.90;;;;;;5045723;28;20435;-64
2023/04/16 07:07:06;;;;;;;56.47;22.95;;;9.70;99.90;;;;;;5044970;28;20048;-65
2023/04/16 07:09:31;;;;;;;56.78;23.90;;;9.70;99.90;;;;;;5048026;28;20037;-65
2023/04/16 07:11:57;;;;;;;56.22;22.35;;;9.60;99.90;;;;;;5048941;28;20503;-67
2023/04/16 07:14:23;;;;;;;59.05;24.15;;;9.60;99.90;;;;;;5042564;28;20082;-65
2023/04/16 07:16:48;;;;;;;56.05;25.00;;;9.60;99.90;;;;;;5044152;28;20427;-63
2023/04/16 07:19:14;;;;;;;60.70;25.75;;;9.60;99.90;;;;;;5059509;28;20415;-68
2023/04/16 07:21:42;;;;;;;57.47;25.15;;;9.70;99.90;;;;;;5042548;28;20055;-68
2023/04/16 07:24:09;;;;;;;57.38;25.02;;;9.70;99.90;;;;;;5042423;28;20146;-69
2023/04/16 07:26:34;;;;;;;59.60;25.08;;;9.80;99.90;;;;;;5041630;28;20025;-66
2023/04/16 07:29:00;;;;;;;58.58;24.17;;;9.90;99.90;;;;;;5041295;28;20092;-69
2023/04/16 07:31:26;;;;;;;54.92;24.90;;;9.90;99.90;;;;;;5040506;28;20045;-66
2023/04/16 07:33:52;;;;;;;43.58;17.52;;;9.80;99.90;;;;;;5040217;28;20049;-64
2023/04/16 07:36:17;;;;;;;52.03;20.85;;;10.00;99.90;;;;;;5059390;28;20052;-65
2023/04/16 07:38:45;;;;;;;46.63;21.40;;;10.00;99.90;;;;;;5048232;28;20045;-64
2023/04/16 07:41:10;;;;;;;55.17;24.58;;;10.00;99.90;;;;;;5061745;28;20484;-68
2023/04/16 07:43:36;;;;;;;51.67;22.30;;;10.00;99.90;;;;;;5046061;28;20045;-68
2023/04/16 07:46:01;;;;;;;54.75;23.75;;;10.00;99.90;;;;;;5042016;28;20041;-68
2023/04/16 07:48:27;;;;;;;52.58;19.80;;;10.20;99.90;;;;;;5046180;28;20406;-65
2023/04/16 07:50:53;;;;;;;50.58;21.98;;;10.40;99.90;;;;;;5044559;28;20029;-67
2023/04/16 07:53:18;;;;;;;51.58;24.25;;;10.50;99.90;;;;;;5044631;28;20472;-66
2023/04/16 07:55:44;;;;;;;48.67;20.40;;;10.60;99.90;;;;;;5044741;28;20094;-68
2023/04/16 07:58:09;;;;;;;44.33;18.25;;;10.70;99.90;;;;;;5043428;28;20072;-68
2023/04/16 08:00:35;;;;;;;40.08;19.33;;;10.80;99.90;;;;;;5063770;28;20041;-70
2023/04/16 08:03:00;;;;;;;45.38;22.25;;;10.80;99.90;;;;;;5044624;28;20067;-68
2023/04/16 08:05:26;;;;;;;38.95;18.73;;;10.80;99.90;;;;;;5047656;28;20387;-65
2023/04/16 08:07:51;;;;;;;47.97;21.95;;;10.90;99.90;;;;;;5045336;28;20033;-65
2023/04/16 08:10:17;;;;;;;48.47;22.42;;;11.00;99.90;;;;;;5043587;28;20048;-68
2023/04/16 08:12:42;;;;;;;40.03;15.98;;;11.00;99.90;;;;;;5048497;28;20033;-66
2023/04/16 08:15:08;;;;;;;48.28;21.13;;;11.00;99.90;;;;;;5046909;28;20396;-69
2023/04/16 08:17:34;;;;;;;44.13;20.77;;;11.10;99.90;;;;;;5044357;28;20057;-69
2023/04/16 08:20:00;;;;;;;41.63;20.80;;;11.10;99.90;;;;;;5043375;28;20103;-68
2023/04/16 08:22:26;;;;;;;42.35;21.73;;;11.30;99.90;;;;;;5045347;28;20056;-69
2023/04/16 08:24:51;;;;;;;44.53;20.00;;;11.50;99.90;;;;;;5032414;28;20043;-68
2023/04/16 08:27:17;;;;;;;41.33;18.00;;;11.70;99.90;;;;;;5044696;28;20033;-68
2023/04/16 08:29:43;;;;;;;44.30;20.83;;;11.80;99.90;;;;;;5045387;28;20045;-67
2023/04/16 08:32:09;;;;;;;33.17;15.25;;;11.90;99.90;;;;;;5045438;28;20069;-72
2023/04/16 08:34:35;;;;;;;44.17;22.15;;;11.80;99.90;;;;;;5048988;28;20052;-69
2023/04/16 08:37:01;;;;;;;36.05;16.17;;;11.70;99.90;;;;;;5044958;28;20041;-67
2023/04/16 08:39:27;;;;;;;40.20;20.77;;;11.60;99.90;;;;;;5044107;28;20036;-66
2023/04/16 08:41:53;;;;;;;41.85;21.98;;;11.60;99.90;;;;;;5043590;28;20060;-69
2023/04/16 08:44:27;;;;;;;46.15;19.90;;;11.80;99.90;;;;;;5043113;28;20092;-65
2023/04/16 08:46:57;;;;;;;46.60;22.77;;;12.10;99.90;;;;;;5046170;28;20447;-67
2023/04/16 08:49:24;;;;;;;33.33;13.98;;;12.20;99.90;;;;;;5045991;28;20041;-73
2023/04/16 08:51:55;;;;;;;28.52;13.57;;;12.20;99.90;;;;;;5048206;28;20040;-66
2023/04/16 08:54:48;;;;;;;37.05;17.60;;;12.10;99.90;;;;;;5047964;28;20053;-65
2023/04/16 08:57:18;;;;;;;39.08;19.25;;;11.90;99.90;;;;;;5047231;28;20053;-66
2023/04/16 08:59:47;;;;;;;36.38;18.55;;;11.90;99.90;;;;;;5058593;28;20032;-66
2023/04/16 09:02:13;;;;;;;34.53;19.90;;;11.80;99.90;;;;;;5045875;28;20563;-70
2023/04/16 09:04:41;;;;;;;38.00;20.80;;;11.80;99.90;;;;;;5050965;28;20041;-69
2023/04/16 09:07:08;;;;;;;38.15;19.65;;;12.00;99.90;;;;;;5051896;28;20064;-68
2023/04/16 09:09:34;;;;;;;43.65;20.67;;;12.30;99.90;;;;;;5047843;28;20044;-67
2023/04/16 09:12:00;;;;;;;45.92;21.35;;;12.60;99.90;;;;;;5042543;28;20072;-69
2023/04/16 09:14:26;;;;;;;31.75;15.75;;;12.80;99.90;;;;;;5044111;28;20137;-66
2023/04/16 09:16:53;;;;;;;39.20;19.23;;;12.80;99.90;;;;;;5047477;28;20483;-66
2023/04/16 09:19:18;;;;;;;40.88;21.30;;;12.90;99.90;;;;;;5058861;28;20040;-68
2023/04/16 09:21:46;;;;;;;37.25;17.20;;;12.70;99.90;;;;;;5058892;28;20495;-66
2023/04/16 09:24:12;;;;;;;39.88;19.08;;;12.80;99.90;;;;;;5051079;28;20114;-67
2023/04/16 09:26:37;;;;;;;43.30;21.92;;;12.90;99.90;;;;;;5049372;28;20567;-68
2023/04/16 09:29:03;;;;;;;42.80;19.45;;;12.90;99.90;;;;;;5046172;28;20032;-70
2023/04/16 09:31:29;;;;;;;35.47;18.45;;;13.00;99.90;;;;;;5028266;28;20038;-69
2023/04/16 09:34:02;;;;;;;35.55;18.45;;;13.20;99.90;;;;;;5044315;28;20095;-69
2023/04/16 09:36:28;;;;;;;43.38;18.92;;;13.30;99.90;;;;;;5046330;28;20120;-65
2023/04/16 09:38:54;;;;;;;34.05;18.58;;;13.50;99.90;;;;;;5051360;28;20128;-68
2023/04/16 09:41:26;;;;;;;32.45;17.05;;;13.60;99.90;;;;;;5052599;28;20072;-69
2023/04/16 09:44:03;;;;;;;34.08;15.38;;;13.70;99.90;;;;;;5049779;28;20449;-67
2023/04/16 09:46:30;;;;;;;35.33;16.55;;;13.80;99.90;;;;;;5049056;28;20098;-68
2023/04/16 09:48:56;;;;;;;33.58;17.92;;;13.90;99.90;;;;;;5047676;28;20536;-71
2023/04/16 09:51:23;;;;;;;29.35;15.32;;;13.70;99.90;;;;;;5049974;28;20044;-71
2023/04/16 09:53:52;;;;;;;39.97;20.00;;;13.70;99.90;;;;;;5049842;28;20037;-68
2023/04/16 09:56:23;;;;;;;39.55;18.70;;;13.70;99.90;;;;;;5049619;28;20037;-68
2023/04/16 09:58:49;;;;;;;38.92;20.02;;;13.80;99.90;;;;;;5057217;28;20407;-70
2023/04/16 10:01:17;;;;;;;31.13;14.15;;;13.70;99.90;;;;;;5061361;28;20037;-63
2023/04/16 10:03:42;;;;;;;28.17;15.20;;;13.70;99.90;;;;;;5051115;28;20033;-70
2023/04/16 10:06:14;;;;;;;38.47;18.17;;;13.80;99.90;;;;;;5062503;28;20075;-64
2023/04/16 10:08:58;;;;;;;;;;;13.90;99.90;;;;;;5044963;28;20496;-65
2023/04/16 10:11:24;;;;;;;33.33;18.73;;;14.00;99.90;;;;;;5048701;28;19916;-65
2023/04/16 10:13:50;;;;;;;35.00;18.10;;;14.10;99.90;;;;;;5047643;28;20051;-64
2023/04/16 10:16:16;;;;;;;34.63;18.48;;;14.30;99.90;;;;;;5049920;28;20048;-69
2023/04/16 10:18:44;;;;;;;31.98;18.83;;;14.50;99.90;;;;;;5051964;28;20037;-69
2023/04/16 10:21:11;;;;;;;37.03;18.90;;;14.60;99.90;;;;;;5045765;28;20037;-68
2023/04/16 10:23:38;;;;;;;32.95;17.98;;;14.80;99.90;;;;;;5054541;28;20464;-70
2023/04/16 10:26:05;;;;;;;30.60;17.42;;;15.00;99.90;;;;;;5062652;28;20064;-66
2023/04/16 10:28:34;;;;;;;41.63;16.85;;;15.10;99.90;;;;;;5053062;28;20032;-70
2023/04/16 10:31:05;;;;;;;32.10;17.13;;;15.10;99.90;;;;;;5051069;28;20452;-68
2023/04/16 10:33:33;;;;;;;29.60;16.42;;;15.00;99.90;;;;;;5045924;28;20124;-66
2023/04/16 10:36:22;;;;;;;31.63;17.42;;;14.90;99.90;;;;;;5050174;28;20106;-65
2023/04/16 10:38:52;;;;;;;36.38;18.13;;;14.90;99.90;;;;;;5040218;28;20084;-68
2023/04/16 10:41:19;;;;;;;33.92;16.48;;;14.90;99.90;;;;;;5045612;28;20045;-68
2023/04/16 10:43:46;;;;;;;35.55;16.85;;;14.80;99.90;;;;;;5057331;28;20117;-69
2023/04/16 10:46:29;;;;;;;35.22;17.67;;;14.80;99.90;;;;;;5062546;28;20411;-71
2023/04/16 10:49:02;;;;;;;30.92;18.00;;;14.70;99.90;;;;;;5050604;28;20044;-68
2023/04/16 10:51:34;;;;;;;35.17;17.27;;;14.70;99.90;;;;;;5067780;28;20095;-70
2023/04/16 10:54:15;;;;;;;34.20;15.85;;;14.70;99.90;;;;;;5050157;28;20499;-67
2023/04/16 10:56:44;;;;;;;30.30;16.50;;;14.80;99.90;;;;;;5047994;28;20041;-71
2023/04/16 10:59:10;;;;;;;31.10;16.70;;;14.80;99.90;;;;;;5047154;28;20052;-70
2023/04/16 11:01:44;;;;;;;32.22;16.35;;;14.80;99.90;;;;;;5047472;28;20036;-67
2023/04/16 11:04:19;;;;;;;35.03;16.48;;;14.80;99.90;;;;;;5051609;28;20120;-65
2023/04/16 11:07:06;;;;;;;31.38;17.02;;;14.90;99.90;;;;;;5049450;28;20048;-69
2023/04/16 11:09:52;;;;;;;28.85;16.05;;;14.80;99.90;;;;;;5050360;28;20045;-68
2023/04/16 11:12:23;;;;;;;29.25;14.70;;;14.70;99.90;;;;;;5052011;28;20087;-65
2023/04/16 11:14:50;;;;;;;34.80;16.48;;;14.80;99.90;;;;;;5053718;28;20028;-67
2023/04/16 11:17:17;;;;;;;32.95;17.27;;;14.80;99.90;;;;;;5051916;28;20392;-68
2023/04/16 11:19:43;;;;;;;27.15;15.88;;;14.80;99.90;;;;;;5051374;28;20094;-67
2023/04/16 11:22:13;;;;;;;27.10;15.52;;;14.70;99.90;;;;;;5052952;28;20041;-65
2023/04/16 11:24:39;;;;;;;29.60;16.67;;;14.70;99.90;;;;;;5051785;28;20404;-67
2023/04/16 11:27:08;;;;;;;31.65;13.90;;;14.70;99.90;;;;;;5051062;28;20502;-66
2023/04/16 11:29:34;;;;;;;32.53;16.27;;;14.70;99.90;;;;;;5055947;28;20036;-66
2023/04/16 11:31:59;;;;;;;28.70;16.40;;;14.70;99.90;;;;;;5073032;28;20040;-67
2023/04/16 11:34:25;;;;;;;30.90;17.58;;;14.70;99.90;;;;;;5065962;28;20067;-67
2023/04/16 11:36:51;;;;;;;31.55;14.80;;;14.80;99.90;;;;;;5052083;28;20484;-65
2023/04/16 11:39:17;;;;;;;31.73;16.95;;;14.90;99.90;;;;;;5057446;28;20040;-68
2023/04/16 11:41:43;;;;;;;29.10;15.82;;;14.90;99.90;;;;;;5051594;28;20084;-68
2023/04/16 11:44:29;;;;;;;28.17;14.52;;;14.90;99.90;;;;;;5059741;28;20077;-67
2023/04/16 11:46:55;;;;;;;28.05;15.85;;;14.90;99.90;;;;;;5047128;28;20037;-68
2023/04/16 11:49:28;;;;;;;37.33;16.42;;;14.90;99.90;;;;;;5057552;28;20123;-68
2023/04/16 11:51:54;;;;;;;32.65;17.55;;;14.90;99.90;;;;;;5045254;28;20157;-68
2023/04/16 11:54:20;;;;;;;29.63;15.63;;;14.90;99.90;;;;;;5054832;28;20063;-66
2023/04/16 11:56:47;;;;;;;34.08;16.75;;;14.90;99.90;;;;;;5047860;28;20049;-67
2023/04/16 11:59:16;;;;;;;35.05;16.05;;;14.80;99.90;;;;;;5050150;28;20090;-65
2023/04/16 12:01:55;;;;;;;28.95;14.65;;;14.80;99.90;;;;;;5047213;28;20220;-66
2023/04/16 12:04:23;;;;;;;28.67;16.83;;;14.80;99.90;;;;;;5050810;28;20043;-64
2023/04/16 12:07:11;;;;;;;36.03;16.10;;;14.70;99.90;;;;;;5049820;28;20094;-64
2023/04/16 12:09:39;;;;;;;26.77;15.05;;;14.70;99.90;;;;;;5050699;28;20049;-66
2023/04/16 12:12:29;;;;;;;29.02;14.35;;;14.70;99.90;;;;;;5051189;28;20433;-64
2023/04/16 12:14:56;;;;;;;31.50;18.05;;;14.80;99.90;;;;;;5047988;28;20072;-65
2023/04/16 12:17:22;;;;;;;34.90;16.98;;;14.70;99.90;;;;;;5049283;28;20057;-68
2023/04/16 12:19:54;;;;;;;36.28;15.63;;;14.80;99.90;;;;;;5048106;28;20526;-69
2023/04/16 12:22:37;;;;;;;35.65;17.15;;;14.80;99.90;;;;;;5042546;28;20046;-66
2023/04/16 12:25:10;;;;;;;38.67;17.17;;;14.80;99.90;;;;;;5052555;28;20044;-64
2023/04/16 12:27:52;;;;;;;29.30;14.95;;;14.70;99.90;;;;;;5049680;28;20037;-71
2023/04/16 12:30:21;;;;;;;32.37;15.07;;;14.80;99.90;;;;;;5046402;28;20407;-65